createdAt,value
2022-12-14T00:02:10.768Z,5.20
2022-12-14T00:04:39.167Z,6.00
2022-12-14T00:07:07.569Z,5.90
2022-12-14T00:09:36.291Z,5.80
2022-12-14T00:12:04.725Z,8.90
2022-12-14T00:14:33.149Z,8.60
2022-12-14T00:17:01.535Z,11.40
2022-12-14T00:19:30.325Z,15.30
2022-12-14T00:21:58.729Z,13.00
2022-12-14T00:24:27.114Z,10.10
2022-12-14T00:26:55.481Z,18.60
2022-12-14T00:29:24.133Z,27.00
2022-12-14T00:31:52.638Z,43.50
2022-12-14T00:34:21.076Z,41.80
2022-12-14T00:36:49.475Z,42.10
2022-12-14T00:39:17.896Z,41.10
2022-12-14T00:41:46.285Z,45.70
2022-12-14T00:44:14.768Z,57.20
2022-12-14T00:46:43.214Z,58.70
2022-12-14T00:49:12.204Z,63.80
2022-12-14T00:51:40.630Z,74.40
2022-12-14T00:54:09.045Z,79.00
2022-12-14T00:56:37.473Z,90.70
2022-12-14T00:59:05.942Z,99.90
2022-12-14T01:01:34.541Z,99.90
2022-12-14T01:04:18.346Z,99.90
2022-12-14T01:06:47.957Z,99.90
2022-12-14T01:09:16.443Z,99.90
2022-12-14T01:11:44.952Z,99.90
2022-12-14T01:14:15.452Z,99.90
2022-12-14T01:16:44.053Z,99.90
2022-12-14T01:19:14.840Z,99.90
2022-12-14T01:21:43.290Z,99.90
2022-12-14T01:24:11.932Z,99.90
2022-12-14T01:26:41.713Z,99.90
2022-12-14T01:29:11.374Z,99.90
2022-12-14T01:31:40.356Z,99.90
2022-12-14T01:34:09.192Z,99.90
2022-12-14T01:36:38.666Z,99.90
2022-12-14T01:39:16.881Z,99.90
2022-12-14T01:41:55.987Z,99.90
2022-12-14T01:44:24.345Z,99.90
2022-12-14T01:46:54.877Z,99.90
2022-12-14T01:49:39.324Z,99.90
2022-12-14T01:52:15.710Z,99.90
2022-12-14T01:55:10.356Z,99.90
2022-12-14T01:58:08.150Z,99.90
2022-12-14T02:00:36.621Z,99.90
2022-12-14T02:03:36.079Z,99.90
2022-12-14T02:06:29.709Z,99.90
2022-12-14T02:08:58.901Z,99.90
2022-12-14T02:11:50.943Z,99.90
2022-12-14T02:14:19.407Z,99.90
2022-12-14T02:16:50.909Z,99.90
2022-12-14T02:19:19.496Z,99.90
2022-12-14T02:22:12.231Z,99.90
2022-12-14T02:25:01.674Z,99.90
2022-12-14T02:28:00.509Z,99.90
2022-12-14T02:30:35.696Z,99.90
2022-12-14T02:33:09.883Z,99.90
2022-12-14T02:36:10.399Z,99.90
2022-12-14T02:39:00.321Z,99.90
2022-12-14T02:41:28.704Z,99.90
2022-12-14T02:44:10.611Z,99.90
2022-12-14T02:47:11.021Z,99.90
2022-12-14T02:49:48.988Z,99.90
2022-12-14T02:52:20.833Z,99.90
2022-12-14T02:55:27.634Z,99.90
2022-12-14T02:58:04.031Z,99.90
2022-12-14T03:00:35.760Z,99.90
2022-12-14T03:03:06.743Z,99.90
2022-12-14T03:05:36.012Z,99.90
2022-12-14T03:08:13.229Z,99.90
2022-12-14T03:11:02.909Z,98.50
2022-12-14T03:13:49.302Z,99.20
2022-12-14T03:16:43.384Z,99.90
2022-12-14T03:19:18.983Z,99.90
2022-12-14T03:21:54.688Z,99.90
2022-12-14T03:24:42.897Z,99.90
2022-12-14T03:27:25.600Z,99.90
2022-12-14T03:30:11.764Z,99.90
2022-12-14T03:32:45.450Z,99.90
2022-12-14T03:35:24.598Z,99.90
2022-12-14T03:37:59.022Z,99.90
2022-12-14T03:40:51.299Z,99.90
2022-12-14T03:43:43.336Z,99.90
2022-12-14T03:46:35.241Z,99.90
2022-12-14T03:49:20.257Z,99.90
2022-12-14T03:52:17.229Z,99.90
2022-12-14T03:55:02.708Z,99.90
2022-12-14T03:57:57.443Z,99.90
2022-12-14T04:00:28.144Z,99.90
2022-12-14T04:03:18.534Z,99.90
2022-12-14T04:05:49.063Z,99.90
2022-12-14T04:08:29.036Z,99.90
2022-12-14T04:11:17.703Z,99.90
2022-12-14T04:14:30.912Z,99.90
2022-12-14T04:17:21.360Z,99.90
2022-12-14T04:20:13.501Z,99.90
2022-12-14T04:22:49.047Z,99.90
2022-12-14T04:25:58.961Z,99.90
2022-12-14T04:28:59.066Z,99.90
2022-12-14T04:31:32.579Z,99.90
2022-12-14T04:34:05.609Z,99.90
2022-12-14T04:37:12.755Z,99.90
2022-12-14T04:40:16.114Z,99.90
2022-12-14T04:42:55.964Z,99.90
2022-12-14T04:45:40.624Z,99.90
2022-12-14T04:48:30.343Z,99.90
2022-12-14T04:51:25.864Z,99.90
2022-12-14T04:53:59.586Z,99.90
2022-12-14T04:56:37.752Z,99.90
2022-12-14T04:59:06.323Z,99.90
2022-12-14T05:01:53.519Z,99.90
2022-12-14T05:04:28.021Z,99.90
2022-12-14T05:07:02.454Z,99.90
2022-12-14T05:10:02.741Z,99.90
2022-12-14T05:12:55.804Z,99.90
2022-12-14T05:15:32.968Z,99.90
2022-12-14T05:18:09.042Z,99.90
2022-12-14T05:20:37.628Z,99.90
2022-12-14T05:23:08.391Z,99.90
2022-12-14T05:25:36.937Z,99.90
2022-12-14T05:28:05.520Z,99.90
2022-12-14T05:30:34.107Z,99.80
2022-12-14T05:33:02.638Z,99.90
2022-12-14T05:35:31.068Z,98.00
2022-12-14T05:37:59.491Z,99.70
2022-12-14T05:40:27.959Z,99.40
2022-12-14T05:43:06.274Z,95.30
2022-12-14T05:45:34.728Z,96.30
2022-12-14T05:48:03.111Z,99.90
2022-12-14T05:50:32.135Z,99.90
2022-12-14T05:53:00.517Z,99.90
2022-12-14T05:55:28.932Z,99.90
2022-12-14T05:57:57.426Z,99.90
2022-12-14T06:00:25.826Z,99.90
2022-12-14T06:02:56.466Z,99.90
2022-12-14T06:05:24.957Z,99.90
2022-12-14T06:07:54.801Z,99.90
2022-12-14T06:10:23.208Z,99.90
2022-12-14T06:12:52.823Z,99.90
2022-12-14T06:15:21.596Z,99.90
2022-12-14T06:17:50.319Z,99.90
2022-12-14T06:20:19.047Z,99.90
2022-12-14T06:22:47.885Z,99.90
2022-12-14T06:25:16.747Z,99.90
2022-12-14T06:27:45.139Z,99.90
2022-12-14T06:30:14.016Z,99.90
2022-12-14T06:32:42.390Z,99.90
2022-12-14T06:35:11.009Z,99.90
2022-12-14T06:37:39.411Z,99.90
2022-12-14T06:40:08.434Z,99.90
2022-12-14T06:42:36.908Z,99.90
2022-12-14T06:45:05.564Z,99.90
2022-12-14T06:47:35.393Z,99.90
2022-12-14T06:50:03.813Z,99.90
2022-12-14T06:52:32.221Z,99.90
2022-12-14T06:55:00.628Z,99.90
2022-12-14T06:57:29.028Z,99.90
2022-12-14T06:59:57.390Z,99.90
2022-12-14T07:02:25.880Z,99.90
2022-12-14T07:04:54.435Z,99.90
2022-12-14T07:07:22.822Z,99.90
2022-12-14T07:09:51.327Z,99.90
2022-12-14T07:12:19.747Z,99.90
2022-12-14T07:14:48.115Z,99.90
2022-12-14T07:17:16.509Z,99.90
2022-12-14T07:19:45.338Z,99.90
2022-12-14T07:22:17.829Z,99.90
2022-12-14T07:24:47.013Z,99.90
2022-12-14T07:27:15.453Z,99.90
2022-12-14T07:29:43.816Z,99.90
2022-12-14T07:32:12.317Z,99.90
2022-12-14T07:34:41.344Z,99.90
2022-12-14T07:37:09.719Z,99.90
2022-12-14T07:39:38.210Z,99.90
2022-12-14T07:42:06.622Z,99.90
2022-12-14T07:44:35.025Z,99.90
2022-12-14T07:47:03.440Z,99.90
2022-12-14T07:49:31.821Z,99.90
2022-12-14T07:52:00.197Z,99.90
2022-12-14T07:54:28.781Z,99.90
2022-12-14T07:56:57.147Z,99.90
2022-12-14T07:59:25.543Z,99.90
2022-12-14T08:01:54.935Z,99.90
2022-12-14T08:04:23.554Z,99.90
2022-12-14T08:06:52.030Z,99.90
2022-12-14T08:09:20.955Z,99.90
2022-12-14T08:11:49.552Z,99.90
2022-12-14T08:14:19.993Z,99.90
2022-12-14T08:16:50.070Z,99.90
2022-12-14T08:19:20.344Z,99.90
2022-12-14T08:21:48.917Z,99.90
2022-12-14T08:24:20.390Z,99.90
2022-12-14T08:26:49.433Z,99.90
2022-12-14T08:29:19.071Z,99.90
2022-12-14T08:31:47.847Z,99.90
2022-12-14T08:34:22.891Z,99.90
2022-12-14T08:36:51.530Z,99.90
2022-12-14T08:39:20.102Z,99.90
2022-12-14T08:41:48.586Z,99.90
2022-12-14T08:44:18.289Z,99.90
2022-12-14T08:46:46.730Z,99.90
2022-12-14T08:49:15.392Z,99.90
2022-12-14T08:51:43.880Z,99.90
2022-12-14T08:54:12.286Z,99.90
2022-12-14T08:56:40.687Z,99.90
2022-12-14T08:59:15.966Z,99.90
2022-12-14T09:01:57.603Z,99.90
2022-12-14T09:04:26.261Z,99.90
2022-12-14T09:06:54.626Z,99.90
2022-12-14T09:09:23.078Z,99.90
2022-12-14T09:11:51.496Z,99.90
2022-12-14T09:14:19.861Z,99.90
2022-12-14T09:16:48.514Z,99.90
2022-12-14T09:19:17.112Z,99.90
2022-12-14T09:21:45.552Z,99.90
2022-12-14T09:24:13.944Z,99.90
2022-12-14T09:26:42.378Z,99.90
2022-12-14T09:29:17.411Z,99.90
2022-12-14T09:31:46.149Z,99.90
2022-12-14T09:34:14.693Z,99.90
2022-12-14T09:36:43.108Z,99.90
2022-12-14T09:39:15.615Z,99.90
2022-12-14T09:41:46.725Z,99.90
2022-12-14T09:44:28.000Z,99.90
2022-12-14T09:47:06.581Z,99.90
2022-12-14T09:49:42.332Z,99.90
2022-12-14T09:52:16.893Z,99.90
2022-12-14T09:54:46.711Z,99.90
2022-12-14T09:57:39.132Z,99.90
2022-12-14T10:00:18.972Z,99.90
2022-12-14T10:03:11.337Z,99.90
2022-12-14T10:05:51.611Z,99.90
2022-12-14T10:08:36.932Z,99.90
2022-12-14T10:11:12.329Z,99.90
2022-12-14T10:14:09.648Z,99.90
2022-12-14T10:17:06.558Z,99.90
2022-12-14T10:19:55.125Z,99.90
2022-12-14T10:22:34.806Z,99.90
2022-12-14T10:25:32.424Z,99.90
2022-12-14T10:28:26.130Z,99.90
2022-12-14T10:31:00.283Z,99.90
2022-12-14T10:33:32.685Z,99.90
2022-12-14T10:36:10.948Z,99.90
2022-12-14T10:38:49.278Z,99.90
2022-12-14T10:41:23.842Z,99.90
2022-12-14T10:44:07.444Z,99.90
2022-12-14T10:47:13.304Z,99.90
2022-12-14T10:50:01.859Z,99.90
2022-12-14T10:52:37.984Z,99.90
2022-12-14T10:55:28.217Z,99.90
2022-12-14T10:57:56.917Z,99.90
2022-12-14T11:00:25.399Z,99.90
2022-12-14T11:02:59.044Z,99.90
2022-12-14T11:05:36.700Z,99.90
2022-12-14T11:08:09.704Z,99.90
2022-12-14T11:10:42.243Z,99.90
2022-12-14T11:13:22.419Z,99.90
2022-12-14T11:15:53.334Z,99.90
2022-12-14T11:18:30.637Z,99.90
2022-12-14T11:21:07.250Z,99.90
2022-12-14T11:23:40.666Z,99.90
2022-12-14T11:26:14.003Z,99.90
2022-12-14T11:28:55.510Z,99.90
2022-12-14T11:31:39.131Z,99.90
2022-12-14T11:34:22.121Z,99.90
2022-12-14T11:36:51.407Z,99.90
2022-12-14T11:39:25.472Z,99.90
2022-12-14T11:41:59.881Z,99.90
2022-12-14T11:44:34.623Z,99.90
2022-12-14T11:47:13.392Z,99.90
2022-12-14T11:49:41.732Z,99.90
2022-12-14T11:52:14.918Z,99.90
2022-12-14T11:54:49.793Z,99.90
2022-12-14T11:57:29.417Z,99.90
2022-12-14T12:00:06.376Z,99.90
2022-12-14T12:02:48.467Z,99.90
2022-12-14T12:05:20.569Z,99.90
2022-12-14T12:07:51.638Z,99.90
2022-12-14T12:10:26.086Z,99.90
2022-12-14T12:12:56.122Z,99.90
2022-12-14T12:15:49.954Z,99.90
2022-12-14T12:18:27.276Z,99.90
2022-12-14T12:21:10.191Z,99.90
2022-12-14T12:23:44.625Z,99.90
2022-12-14T12:26:49.801Z,99.90
2022-12-14T12:29:26.194Z,99.90
2022-12-14T12:32:24.374Z,99.90
2022-12-14T12:34:56.758Z,99.90
2022-12-14T12:37:57.333Z,99.90
2022-12-14T12:40:34.357Z,99.90
2022-12-14T12:43:31.178Z,99.90
2022-12-14T12:46:14.214Z,99.90
2022-12-14T12:48:52.694Z,99.90
2022-12-14T12:51:26.360Z,99.90
2022-12-14T12:54:00.328Z,99.90
2022-12-14T12:56:59.169Z,99.90
2022-12-14T12:59:46.655Z,99.90
2022-12-14T13:02:44.625Z,99.90
2022-12-14T13:05:45.809Z,99.90
2022-12-14T13:08:35.583Z,99.90
2022-12-14T13:11:29.298Z,99.90
2022-12-14T13:14:14.744Z,99.90
2022-12-14T13:16:44.181Z,99.90
2022-12-14T13:19:48.847Z,99.90
2022-12-14T13:22:14.844Z,99.90
2022-12-14T13:24:46.810Z,99.90
2022-12-14T13:27:33.091Z,99.90
2022-12-14T13:30:25.270Z,99.90
2022-12-14T13:33:17.030Z,99.90
2022-12-14T13:35:58.015Z,99.90
2022-12-14T13:39:06.002Z,99.90
2022-12-14T13:41:42.800Z,99.90
2022-12-14T13:44:38.663Z,99.90
2022-12-14T13:47:23.288Z,99.90
2022-12-14T13:50:34.224Z,99.90
2022-12-14T13:52:50.289Z,99.90
2022-12-14T13:55:38.220Z,99.90
2022-12-14T13:58:38.457Z,99.90
2022-12-14T14:01:36.707Z,99.90
2022-12-14T14:04:26.869Z,99.90
2022-12-14T14:07:15.354Z,99.90
2022-12-14T14:10:29.184Z,99.90
2022-12-14T14:12:57.595Z,99.90
2022-12-14T14:15:31.424Z,99.90
2022-12-14T14:18:15.231Z,99.90
2022-12-14T14:20:47.328Z,99.90
2022-12-14T14:23:16.206Z,99.90
2022-12-14T14:25:55.115Z,99.90
2022-12-14T14:28:30.645Z,99.90
2022-12-14T14:31:00.554Z,99.90
2022-12-14T14:33:50.089Z,99.90
2022-12-14T14:36:38.042Z,99.90
2022-12-14T14:39:54.578Z,99.90
2022-12-14T14:42:25.649Z,99.90
2022-12-14T14:45:00.321Z,99.90
2022-12-14T14:47:38.520Z,99.90
2022-12-14T14:50:21.417Z,99.90
2022-12-14T14:53:18.607Z,99.90
2022-12-14T14:56:16.160Z,99.90
2022-12-14T14:58:44.673Z,99.90
2022-12-14T15:01:29.346Z,99.90
2022-12-14T15:04:03.309Z,99.90
2022-12-14T15:06:38.734Z,99.90
2022-12-14T15:09:26.241Z,99.90
2022-12-14T15:11:57.808Z,99.90
2022-12-14T15:14:36.722Z,99.90
2022-12-14T15:17:20.396Z,99.90
2022-12-14T15:19:51.365Z,99.90
2022-12-14T15:22:39.184Z,99.90
2022-12-14T15:25:14.316Z,99.90
2022-12-14T15:27:42.833Z,99.90
2022-12-14T15:30:14.127Z,99.90
2022-12-14T15:32:47.846Z,99.90
2022-12-14T15:35:19.418Z,99.90
2022-12-14T15:38:00.236Z,99.90
2022-12-14T15:40:31.543Z,99.90
2022-12-14T15:43:02.837Z,99.90
2022-12-14T15:45:33.884Z,99.90
2022-12-14T15:48:25.511Z,99.90
2022-12-14T15:50:56.759Z,99.90
2022-12-14T15:53:34.507Z,99.90
2022-12-14T15:56:24.530Z,99.90
2022-12-14T15:58:54.535Z,99.90
2022-12-14T16:01:41.823Z,99.90
2022-12-14T16:04:21.177Z,99.90
2022-12-14T16:06:57.155Z,99.90
2022-12-14T16:09:25.675Z,99.90
2022-12-14T16:12:05.588Z,99.90
2022-12-14T16:14:50.381Z,99.90
2022-12-14T16:17:23.913Z,99.90
2022-12-14T16:20:01.287Z,99.90
2022-12-14T16:22:33.830Z,99.90
2022-12-14T16:25:09.367Z,99.90
2022-12-14T16:27:43.335Z,99.90
2022-12-14T16:30:32.228Z,99.90
2022-12-14T16:33:19.524Z,99.90
2022-12-14T16:35:59.254Z,99.90
2022-12-14T16:38:27.975Z,99.90
2022-12-14T16:41:00.269Z,99.90
2022-12-14T16:43:34.179Z,99.90
2022-12-14T16:46:03.023Z,99.90
2022-12-14T16:48:36.689Z,99.90
2022-12-14T16:51:38.445Z,99.90
2022-12-14T16:54:30.694Z,99.90
2022-12-14T16:57:06.198Z,99.90
2022-12-14T16:59:37.427Z,99.90
2022-12-14T17:02:08.427Z,99.90
2022-12-14T17:04:39.492Z,99.90
2022-12-14T17:07:08.044Z,99.90
2022-12-14T17:09:37.489Z,99.90
2022-12-14T17:12:15.311Z,99.90
2022-12-14T17:14:49.277Z,99.90
2022-12-14T17:17:34.250Z,99.90
2022-12-14T17:20:09.229Z,99.90
2022-12-14T17:22:40.534Z,99.90
2022-12-14T17:25:10.852Z,99.90
2022-12-14T17:27:39.292Z,99.90
2022-12-14T17:30:08.780Z,99.90
2022-12-14T17:32:37.220Z,99.90
2022-12-14T17:35:09.817Z,99.90
2022-12-14T17:37:38.361Z,99.90
2022-12-14T17:40:07.684Z,99.90
2022-12-14T17:42:38.567Z,97.40
2022-12-14T17:45:18.316Z,94.70
2022-12-14T17:47:46.899Z,91.60
2022-12-14T17:50:17.101Z,91.50
2022-12-14T17:52:45.617Z,83.60
2022-12-14T17:55:20.110Z,83.60
2022-12-14T17:57:49.354Z,81.90
2022-12-14T18:01:02.454Z,79.20
2022-12-14T18:03:34.048Z,74.60
2022-12-14T18:06:04.461Z,59.90
2022-12-14T18:08:32.935Z,45.90
2022-12-14T18:11:10.207Z,35.70
2022-12-14T18:13:42.894Z,39.80
2022-12-14T18:16:16.716Z,41.90
2022-12-14T18:18:45.959Z,43.50
2022-12-14T18:21:20.838Z,31.90
2022-12-14T18:23:51.480Z,22.10
2022-12-14T18:26:22.198Z,26.80
2022-12-14T18:28:54.076Z,32.20
2022-12-14T18:31:42.927Z,27.40
2022-12-14T18:34:22.419Z,28.40
2022-12-14T18:36:57.526Z,25.10
2022-12-14T18:39:33.288Z,32.20
2022-12-14T18:42:03.231Z,29.30
2022-12-14T18:44:35.960Z,32.90
2022-12-14T18:47:40.740Z,22.30
2022-12-14T18:50:07.280Z,10.20
2022-12-14T18:55:35.541Z,1.00
2022-12-14T18:58:11.339Z,1.00
2022-12-14T19:00:42.449Z,1.00
2022-12-14T19:03:22.888Z,1.00
2022-12-14T19:06:20.125Z,1.00
2022-12-14T19:08:55.569Z,1.00
2022-12-14T19:11:45.743Z,1.00
2022-12-14T19:14:25.042Z,1.00
2022-12-14T19:17:07.006Z,1.00
2022-12-14T19:19:44.569Z,1.00
2022-12-14T19:22:15.779Z,1.00
2022-12-14T19:24:52.031Z,1.00
2022-12-14T19:28:08.362Z,1.00
2022-12-14T19:30:24.733Z,1.00
2022-12-14T19:33:09.251Z,1.00
2022-12-14T19:35:48.516Z,1.00
2022-12-14T19:38:29.260Z,1.00
2022-12-14T19:41:01.865Z,1.00
2022-12-14T19:43:32.689Z,1.00
2022-12-14T19:46:03.309Z,1.00
2022-12-14T19:48:44.614Z,1.00
2022-12-14T19:51:19.307Z,1.00
2022-12-14T19:53:56.929Z,1.00
2022-12-14T19:56:33.315Z,1.00
2022-12-14T19:59:06.284Z,1.00
2022-12-14T20:01:47.844Z,1.00
2022-12-14T20:04:28.979Z,1.00
2022-12-14T20:06:59.132Z,1.00
2022-12-14T20:09:29.305Z,1.00
2022-12-14T20:11:58.958Z,1.00
2022-12-14T20:14:29.437Z,1.00
2022-12-14T20:16:59.490Z,1.00
2022-12-14T20:19:29.422Z,1.00
2022-12-14T20:21:59.917Z,1.00
2022-12-14T20:24:28.949Z,1.00
2022-12-14T20:26:58.664Z,1.00
2022-12-14T20:29:28.740Z,1.00
2022-12-14T20:31:57.843Z,1.00
2022-12-14T20:34:26.729Z,1.00
2022-12-14T20:36:58.470Z,1.00
2022-12-14T20:39:27.623Z,1.00
2022-12-14T20:41:56.400Z,1.00
2022-12-14T20:44:24.930Z,1.00
2022-12-14T20:46:54.167Z,1.00
2022-12-14T20:49:24.052Z,1.00
2022-12-14T20:51:52.586Z,1.00
2022-12-14T20:54:23.177Z,1.00
2022-12-14T20:56:51.780Z,1.00
2022-12-14T20:59:20.462Z,1.00
2022-12-14T21:01:55.474Z,1.00
2022-12-14T21:04:24.753Z,1.00
2022-12-14T21:06:53.624Z,1.00
2022-12-14T21:09:22.123Z,1.00
2022-12-14T21:12:10.810Z,1.00
2022-12-14T21:14:45.540Z,1.00
2022-12-14T21:17:17.253Z,1.00
2022-12-14T21:19:45.698Z,1.00
2022-12-14T21:22:23.443Z,1.00
2022-12-14T21:25:07.815Z,1.00
2022-12-14T21:27:39.507Z,1.00
2022-12-14T21:30:12.844Z,1.00
2022-12-14T21:32:41.383Z,1.00
2022-12-14T21:35:11.314Z,1.00
2022-12-14T21:37:39.944Z,1.00
2022-12-14T21:40:09.429Z,1.00
2022-12-14T21:42:37.929Z,1.00
2022-12-14T21:45:06.667Z,1.00
2022-12-14T21:47:35.564Z,1.00
2022-12-14T21:50:03.992Z,1.00
2022-12-14T21:52:32.585Z,1.00
2022-12-14T21:55:01.016Z,1.00
2022-12-14T21:57:49.520Z,1.00
2022-12-14T22:00:19.957Z,1.00
2022-12-14T22:02:48.579Z,1.00
2022-12-14T22:05:17.169Z,1.00
2022-12-14T22:07:45.676Z,1.00
2022-12-14T22:10:14.061Z,1.00
2022-12-14T22:12:42.417Z,1.00
2022-12-14T22:15:11.556Z,1.00
2022-12-14T22:17:40.277Z,1.00
2022-12-14T22:20:09.418Z,1.00
2022-12-14T22:22:37.824Z,1.00
2022-12-14T22:25:06.659Z,1.00
2022-12-14T22:27:35.109Z,1.00
2022-12-14T22:30:06.047Z,1.00
2022-12-14T22:32:34.721Z,1.00
2022-12-14T22:35:03.075Z,1.00
2022-12-14T22:37:31.671Z,1.00
2022-12-14T22:40:00.074Z,1.00
2022-12-14T22:42:28.580Z,1.00
2022-12-14T22:44:56.972Z,1.00
2022-12-14T22:47:25.381Z,1.00
2022-12-14T22:49:53.761Z,1.00
2022-12-14T22:52:24.927Z,1.00
2022-12-14T22:54:55.033Z,1.00
2022-12-14T22:57:24.049Z,1.00
2022-12-14T23:00:02.793Z,1.00
2022-12-14T23:02:32.157Z,1.00
2022-12-14T23:05:00.854Z,1.00
2022-12-14T23:07:29.434Z,1.00
2022-12-14T23:10:16.081Z,1.00
2022-12-14T23:13:03.149Z,1.00
2022-12-14T23:15:50.143Z,1.00
2022-12-14T23:18:37.027Z,1.00
2022-12-14T23:21:33.609Z,1.00
2022-12-14T23:24:20.407Z,1.00
2022-12-14T23:27:09.746Z,1.00
2022-12-14T23:29:57.441Z,1.00
2022-12-14T23:32:44.283Z,1.00
2022-12-14T23:35:31.445Z,1.00
2022-12-14T23:38:23.837Z,1.00
2022-12-14T23:41:10.907Z,1.00
2022-12-14T23:43:57.865Z,1.00
2022-12-14T23:46:44.805Z,1.00
2022-12-14T23:49:31.758Z,1.00
2022-12-14T23:52:18.938Z,1.00
2022-12-14T23:55:05.435Z,1.00
2022-12-14T23:57:52.200Z,1.00
